.
WxDataArchive / Data Records for 2007-11-05
2007-11-04 November 2007 2007-11-06

Data Records for Monday, 05 November 2007

Time	Temp	Chill	HIndex	Humid	Dewpt	 Wind 	HiWind	WindDir	Rain 	Barom 
-----	----	-----	------	-----	-----	------	------	-------	-----	----- 
00:00	38.3	38.3	38.3	81	33.0	0	0	---	0.00	29.906 
00:05	38.0	38.0	38.0	81	32.7	0	0	---	0.00	29.906 
00:10	37.9	37.9	37.9	81	32.6	0	0	---	0.00	29.906 
00:15	37.5	37.5	37.5	81	32.2	0	0	---	0.00	29.903 
00:20	37.2	37.2	37.2	83	32.5	0	1	248	0.00	29.903 
00:25	36.9	36.9	36.9	83	32.2	0	0	---	0.00	29.907 
00:30	36.8	36.8	36.8	84	32.4	0	0	---	0.00	29.907 
00:35	36.5	36.5	36.5	84	32.1	0	0	---	0.00	29.908 
00:40	36.3	36.3	36.3	85	32.2	0	0	---	0.00	29.909 
00:45	36.2	36.2	36.2	85	32.1	0	0	---	0.00	29.908 
00:50	36.3	36.3	36.3	86	32.5	0	0	---	0.00	29.909 
00:55	36.3	36.3	36.3	87	32.8	0	0	---	0.00	29.908 
01:00	36.5	36.5	36.5	87	33.0	0	0	---	0.00	29.909 
01:05	36.5	36.5	36.5	87	33.0	0	0	---	0.00	29.907 
01:10	36.5	36.5	36.5	87	33.0	0	0	---	0.00	29.900 
01:15	36.3	36.3	36.3	87	32.8	0	0	---	0.00	29.899 
01:20	36.2	36.2	36.2	87	32.7	0	0	---	0.00	29.899 
01:25	36.0	36.0	36.0	87	32.5	0	0	---	0.00	29.895 
01:30	35.9	35.9	35.9	88	32.7	0	0	---	0.00	29.896 
01:35	35.8	35.8	35.8	88	32.6	0	0	---	0.00	29.895 
01:40	35.8	35.8	35.8	88	32.6	0	0	---	0.00	29.897 
01:45	35.9	35.9	35.9	89	33.0	0	0	---	0.00	29.896 
01:50	36.0	36.0	36.0	89	33.1	0	1	248	0.00	29.896 
01:55	36.2	36.2	36.2	89	33.3	0	0	---	0.00	29.894 
02:00	36.2	36.2	36.2	88	33.0	0	0	---	0.00	29.892 
02:05	36.2	36.2	36.2	88	33.0	0	0	---	0.00	29.889 
02:10	35.9	35.9	35.9	88	32.7	0	0	---	0.00	29.887 
02:15	35.8	35.8	35.8	88	32.6	0	0	---	0.00	29.884 
02:20	35.5	35.5	35.5	88	32.3	0	0	---	0.00	29.883 
02:25	35.3	35.3	35.3	88	32.1	0	0	---	0.00	29.883 
02:30	35.0	35.0	35.0	88	31.8	0	0	---	0.00	29.881 
02:35	34.9	34.9	34.9	88	31.7	0	0	---	0.00	29.880 
02:40	34.9	34.9	34.9	89	32.0	0	0	---	0.00	29.880 
02:45	34.7	34.7	34.7	89	31.8	0	0	---	0.00	29.879 
02:50	34.7	34.7	34.7	89	31.8	0	0	---	0.00	29.874 
02:55	34.9	34.9	34.9	90	32.3	0	0	---	0.00	29.867 
03:00	35.2	35.2	35.2	90	32.6	0	0	---	0.00	29.864 
03:05	35.5	35.5	35.5	90	32.9	0	1	248	0.00	29.864 
03:10	35.6	35.6	35.6	90	33.0	0	0	---	0.00	29.862 
03:15	35.8	35.8	35.8	89	32.9	0	1	248	0.00	29.855 
03:20	36.0	36.0	36.0	88	32.8	0	1	158	0.00	29.851 
03:25	36.2	36.2	36.2	87	32.7	0	1	158	0.00	29.850 
03:30	36.3	36.3	36.3	87	32.8	0	1	158	0.00	29.847 
03:35	36.5	36.5	36.5	85	32.4	0	0	---	0.00	29.840 
03:40	36.6	36.6	36.6	84	32.2	0	1	158	0.00	29.835 
03:45	36.8	36.8	36.8	83	32.1	0	1	158	0.00	29.833 
03:50	36.9	36.9	36.9	82	31.9	0	1	158	0.00	29.832 
03:55	36.9	36.9	36.9	82	31.9	0	0	---	0.00	29.832 
04:00	36.8	36.8	36.8	82	31.8	0	0	---	0.00	29.831 
04:05	36.5	36.5	36.5	82	31.5	0	0	---	0.00	29.826 
04:10	36.3	36.3	36.3	83	31.6	0	0	---	0.00	29.832 
04:15	36.2	36.2	36.2	83	31.5	0	0	---	0.00	29.830 
04:20	36.0	36.0	36.0	84	31.6	0	0	---	0.00	29.831 
04:25	36.0	36.0	36.0	84	31.6	0	0	---	0.00	29.824 
04:30	36.0	36.0	36.0	84	31.6	0	1	158	0.00	29.824 
04:35	36.3	36.3	36.3	84	31.9	0	1	158	0.00	29.821 
04:40	36.6	36.6	36.6	83	31.9	0	1	158	0.00	29.817 
04:45	36.9	36.9	36.9	82	31.9	0	1	158	0.00	29.812 
04:50	37.2	37.2	37.2	81	31.9	0	1	158	0.00	29.803 
04:55	37.6	37.6	37.6	79	31.7	1	2	112	0.00	29.801 
05:00	38.0	38.0	38.0	77	31.4	0	2	112	0.00	29.793 
05:05	38.3	38.3	38.3	75	31.1	1	3	90	0.00	29.795 
05:10	38.6	38.6	38.6	75	31.4	0	2	90	0.00	29.790 
05:15	38.9	38.9	38.9	73	31.0	0	2	90	0.00	29.788 
05:20	39.1	39.1	39.1	72	30.8	0	3	90	0.00	29.787 
05:25	39.3	39.3	39.3	71	30.7	1	3	112	0.00	29.784 
05:30	39.6	39.6	39.6	71	31.0	0	2	112	0.00	29.780 
05:35	39.6	39.6	39.6	70	30.6	0	1	112	0.00	29.776 
05:40	39.6	39.6	39.6	70	30.6	0	1	112	0.00	29.773 
05:45	39.6	39.6	39.6	69	30.3	0	1	112	0.00	29.771 
05:50	39.8	39.8	39.8	69	30.5	0	1	112	0.00	29.769 
05:55	39.9	39.9	39.9	69	30.6	0	1	112	0.00	29.766 
06:00	40.2	40.2	40.2	67	30.1	0	2	112	0.00	29.758 
06:05	40.5	40.5	40.5	65	29.7	0	2	112	0.00	29.758 
06:10	40.6	40.6	40.6	65	29.8	0	3	90	0.00	29.756 
06:15	40.8	40.8	40.8	65	30.0	0	4	90	0.00	29.746 
06:20	41.1	41.1	41.1	64	29.9	1	2	112	0.00	29.740 
06:25	41.3	41.3	41.3	63	29.7	0	3	112	0.00	29.738 
06:30	41.5	41.5	41.5	64	30.2	1	5	112	0.00	29.738 
06:35	41.8	41.8	41.8	64	30.5	0	3	112	0.00	29.740 
06:40	41.9	41.9	41.9	64	30.6	0	2	180	0.00	29.748 
06:45	42.1	42.1	42.1	63	30.4	0	3	270	0.00	29.748 
06:50	42.2	42.2	42.2	63	30.5	0	4	270	0.00	29.747 
06:55	42.5	42.5	42.5	63	30.8	0	3	270	0.00	29.747 
07:00	42.8	42.8	42.8	62	30.7	1	3	248	0.00	29.740 
07:05	43.1	43.1	43.1	61	30.6	1	4	112	0.00	29.739 
07:10	43.2	43.2	43.2	60	30.3	1	4	68	0.00	29.730 
07:15	43.3	43.3	43.3	60	30.4	1	3	90	0.00	29.728 
07:20	43.3	43.3	43.3	60	30.4	1	5	90	0.00	29.727 
07:25	43.3	43.3	43.3	60	30.4	1	4	112	0.00	29.726 
07:30	43.1	43.1	43.1	60	30.2	1	4	112	0.00	29.719 
07:35	43.1	43.1	43.1	60	30.2	1	4	112	0.00	29.712 
07:40	43.2	43.2	43.2	60	30.3	1	6	90	0.00	29.710 
07:45	43.2	43.2	43.2	60	30.3	1	3	90	0.00	29.709 
07:50	43.3	43.3	43.3	60	30.4	1	4	90	0.00	29.698 
07:55	43.5	43.5	43.5	60	30.5	1	5	112	0.00	29.693 
08:00	43.8	43.8	43.8	58	30.0	1	4	112	0.00	29.684 
08:05	44.6	44.6	44.6	58	30.7	1	6	90	0.00	29.691 
08:10	45.2	45.2	45.2	56	30.4	2	5	90	0.00	29.686 
08:15	45.5	45.5	45.5	55	30.3	1	3	315	0.00	29.688 
08:20	45.7	45.7	45.7	54	30.0	2	9	248	0.00	29.692 
08:25	46.0	46.0	46.0	54	30.3	2	6	248	0.00	29.689 
08:30	46.2	46.2	46.2	53	30.0	2	7	248	0.00	29.692 
08:35	46.8	46.8	46.8	51	29.6	2	6	248	0.00	29.684 
08:40	47.3	47.3	47.3	50	29.6	2	6	248	0.00	29.682 
08:45	47.7	47.7	47.7	50	30.0	1	4	248	0.00	29.678 
08:50	48.3	48.3	48.3	49	30.0	2	7	248	0.00	29.678 
08:55	48.6	48.6	48.6	48	29.8	3	7	270	0.00	29.674 
09:00	49.4	49.4	49.4	48	30.5	2	6	248	0.00	29.673 
09:05	50.1	50.1	50.1	47	30.7	2	7	248	0.00	29.673 
09:10	50.8	50.8	50.8	46	30.8	3	11	248	0.00	29.677 
09:15	51.6	51.6	51.6	45	31.0	3	7	270	0.00	29.678 
09:20	51.9	51.9	51.9	43	30.1	3	7	270	0.00	29.678 
09:25	52.0	52.0	52.0	44	30.8	4	11	248	0.00	29.674 
09:30	52.3	52.3	52.3	45	31.6	4	7	248	0.00	29.675 
09:35	52.6	52.6	52.6	46	32.4	3	9	248	0.00	29.662 
09:40	53.1	53.1	53.1	46	32.9	2	11	270	0.00	29.659 
09:45	53.5	53.5	53.5	46	33.2	3	7	248	0.00	29.657 
09:50	53.8	53.8	53.8	47	34.0	3	9	248	0.00	29.654 
09:55	54.1	54.1	54.1	47	34.3	3	8	270	0.00	29.653 
10:00	54.4	54.4	54.4	48	35.1	4	10	248	0.00	29.647 
10:05	54.4	54.4	54.4	49	35.6	4	18	248	0.00	29.645 
10:10	54.4	54.4	54.4	50	36.2	4	18	270	0.00	29.642 
10:15	54.4	54.4	54.4	50	36.2	3	10	270	0.00	29.632 
10:20	54.2	54.2	54.2	51	36.5	4	11	270	0.00	29.632 
10:25	54.2	54.2	54.2	53	37.4	4	13	248	0.00	29.632 
10:30	54.1	54.1	54.1	52	36.9	3	10	248	0.00	29.633 
10:35	54.1	54.1	54.1	53	37.4	3	9	248	0.00	29.636 
10:40	54.2	54.2	54.2	53	37.4	3	10	248	0.00	29.629 
10:45	54.2	54.2	54.2	53	37.4	3	10	248	0.00	29.627 
10:50	54.2	54.2	54.2	54	37.9	3	9	248	0.00	29.626 
10:55	54.4	54.4	54.4	53	37.6	5	13	270	0.00	29.639 
11:00	54.4	54.4	54.4	54	38.1	5	11	248	0.00	29.639 
11:05	54.4	54.4	54.4	54	38.1	5	10	270	0.00	29.636 
11:10	54.4	54.4	54.4	54	38.1	4	9	248	0.00	29.632 
11:15	54.5	54.5	54.5	55	38.7	4	11	270	0.00	29.626 
11:20	54.7	54.7	54.7	55	38.9	4	10	270	0.00	29.628 
11:25	54.8	54.8	54.8	55	38.9	5	11	248	0.00	29.626 
11:30	55.0	55.0	55.0	56	39.6	4	11	248	0.00	29.622 
11:35	55.1	55.1	55.1	57	40.1	4	9	248	0.00	29.619 
11:40	55.3	55.3	55.3	57	40.3	4	10	270	0.00	29.617 
11:45	55.4	55.4	55.4	59	41.3	4	12	248	0.00	29.614 
11:50	55.6	55.6	55.6	59	41.5	3	11	270	0.00	29.610 
11:55	55.7	55.7	55.7	59	41.6	6	12	270	0.00	29.613 
12:00	55.7	55.7	55.7	59	41.6	3	7	248	0.00	29.612 
12:05	55.9	55.9	55.9	58	41.3	3	10	248	0.00	29.610 
12:10	55.9	55.9	55.9	60	42.2	4	11	248	0.00	29.611 
12:15	55.9	55.9	55.9	59	41.8	4	9	248	0.00	29.613 
12:20	55.9	55.9	55.9	59	41.8	4	12	248	0.00	29.612 
12:25	56.0	56.0	56.0	59	41.9	3	7	248	0.00	29.610 
12:30	56.2	56.2	56.2	59	42.1	3	9	248	0.00	29.609 
12:35	56.2	56.2	56.2	60	42.5	2	6	248	0.00	29.609 
12:40	56.2	56.2	56.2	60	42.5	4	11	248	0.00	29.609 
12:45	56.2	56.2	56.2	59	42.1	4	9	270	0.00	29.609 
12:50	56.3	56.3	56.3	58	41.7	3	9	270	0.00	29.614 
12:55	56.2	56.2	56.2	59	42.1	5	14	248	0.00	29.611 
13:00	56.0	56.0	56.0	59	41.9	3	6	248	0.00	29.610 
13:05	56.0	56.0	56.0	60	42.3	4	13	248	0.00	29.611 
13:10	55.9	55.9	55.9	59	41.8	4	10	248	0.00	29.611 
13:15	55.9	55.9	55.9	60	42.2	4	9	248	0.00	29.609 
13:20	55.9	55.9	55.9	60	42.2	4	10	248	0.00	29.609 
13:25	55.9	55.9	55.9	60	42.2	3	9	270	0.00	29.609 
13:30	55.9	55.9	55.9	60	42.2	3	10	248	0.00	29.609 
13:35	56.0	56.0	56.0	60	42.3	2	7	270	0.00	29.608 
13:40	56.0	56.0	56.0	61	42.7	2	5	225	0.00	29.606 
13:45	55.9	55.9	55.9	60	42.2	3	6	248	0.00	29.604 
13:50	55.7	55.7	55.7	59	41.6	4	10	248	0.00	29.596 
13:55	55.6	55.6	55.6	60	41.9	2	6	248	0.00	29.606 
14:00	55.6	55.6	55.6	61	42.4	1	4	248	0.00	29.610 
14:05	55.4	55.4	55.4	60	41.7	3	5	248	0.00	29.607 
14:10	55.6	55.6	55.6	60	41.9	1	4	248	0.00	29.605 
14:15	55.6	55.6	55.6	61	42.4	2	5	248	0.00	29.614 
14:20	55.6	55.6	55.6	61	42.4	2	6	248	0.00	29.613 
14:25	55.6	55.6	55.6	61	42.4	2	5	248	0.00	29.610 
14:30	55.6	55.6	55.6	61	42.4	2	6	248	0.00	29.622 
14:35	55.6	55.6	55.6	62	42.8	1	5	270	0.00	29.614 
14:40	55.4	55.4	55.4	61	42.2	1	3	248	0.00	29.613 
14:45	55.4	55.4	55.4	58	40.9	3	9	248	0.00	29.620 
14:50	55.3	55.3	55.3	56	39.9	3	6	270	0.00	29.626 
14:55	55.3	55.3	55.3	57	40.3	1	3	270	0.00	29.626 
15:00	55.1	55.1	55.1	58	40.6	2	5	225	0.00	29.624 
15:05	55.1	55.1	55.1	58	40.6	1	9	248	0.00	29.619 
15:10	54.7	54.7	54.7	61	41.5	1	3	248	0.00	29.626 
15:15	54.2	54.2	54.2	62	41.5	2	6	248	0.00	29.634 
15:20	53.6	53.6	53.6	64	41.7	2	4	248	0.00	29.639 
15:25	53.2	53.2	53.2	67	42.5	1	3	248	0.00	29.639 
15:30	52.8	52.8	52.8	68	42.5	0	1	248	0.00	29.641 
15:35	52.5	52.5	52.5	70	43.0	0	1	315	0.00	29.642 
15:40	52.0	52.0	52.0	72	43.3	1	3	315	0.01	29.647 
15:45	51.1	51.1	51.1	74	43.1	2	4	315	0.00	29.655 
15:50	50.5	50.5	50.5	76	43.2	2	6	292	0.00	29.659 
15:55	49.9	49.9	49.9	79	43.6	1	4	338	0.02	29.672 
16:00	48.9	48.9	48.9	79	42.7	2	4	270	0.00	29.670 
16:05	48.3	48.3	48.3	81	42.7	0	2	315	0.01	29.665 
16:10	48.2	48.2	48.2	84	43.6	0	1	315	0.00	29.670 
16:15	48.0	48.0	48.0	85	43.7	0	0	---	0.00	29.664 
16:20	48.0	48.0	48.0	85	43.7	0	1	315	0.00	29.663 
16:25	48.2	48.2	48.2	85	43.9	0	1	315	0.00	29.675 
16:30	48.2	48.2	48.2	82	43.0	1	7	315	0.00	29.674 
16:35	47.9	47.9	47.9	78	41.4	2	4	292	0.00	29.675 
16:40	47.4	47.4	47.4	78	40.9	1	4	292	0.00	29.676 
16:45	47.1	47.1	47.1	77	40.3	2	9	315	0.00	29.677 
16:50	47.0	47.0	47.0	78	40.5	2	5	315	0.00	29.682 
16:55	46.7	46.7	46.7	78	40.2	2	5	315	0.01	29.682 
17:00	46.7	46.7	46.7	78	40.2	1	4	315	0.00	29.681 
17:05	46.5	46.5	46.5	79	40.3	1	4	315	0.00	29.692 
17:10	46.5	46.5	46.5	78	40.0	1	5	315	0.00	29.693 
17:15	46.5	46.5	46.5	77	39.7	2	5	315	0.00	29.705 
17:20	46.4	46.4	46.4	73	38.2	2	9	315	0.00	29.702 
17:25	46.2	46.2	46.2	73	38.0	2	5	338	0.00	29.708 
17:30	46.0	46.0	46.0	72	37.5	1	3	315	0.00	29.707 
17:35	45.8	45.8	45.8	71	36.9	2	6	292	0.00	29.710 
17:40	45.5	45.5	45.5	71	36.7	2	6	292	0.00	29.722 
17:45	45.2	45.2	45.2	70	36.0	3	9	292	0.00	29.730 
17:50	44.1	42.1	44.1	77	37.4	4	9	315	0.01	29.740 
17:55	43.1	43.1	43.1	80	37.4	2	8	270	0.00	29.744 
18:00	42.5	42.5	42.5	82	37.4	2	6	270	0.00	29.744 
18:05	42.2	42.2	42.2	83	37.4	2	5	270	0.00	29.734 
18:10	42.1	42.1	42.1	85	37.9	0	2	270	0.00	29.740 
18:15	42.1	42.1	42.1	86	38.2	1	3	270	0.00	29.738 
18:20	42.2	42.2	42.2	85	38.0	1	3	248	0.00	29.739 
18:25	42.3	42.3	42.3	84	37.8	1	3	248	0.00	29.742 
18:30	42.5	42.5	42.5	83	37.7	2	4	248	0.00	29.742 
18:35	42.8	42.8	42.8	81	37.4	1	3	248	0.00	29.746 
18:40	42.9	42.9	42.9	78	36.5	2	4	248	0.00	29.756 
18:45	43.1	43.1	43.1	75	35.7	2	5	270	0.00	29.757 
18:50	43.3	43.3	43.3	71	34.5	3	10	315	0.00	29.768 
18:55	43.5	43.5	43.5	68	33.7	3	10	315	0.00	29.771 
19:00	43.3	43.3	43.3	67	33.1	3	9	315	0.00	29.771 
19:05	43.1	43.1	43.1	67	32.9	2	9	315	0.00	29.772 
19:10	42.8	42.8	42.8	67	32.6	2	5	292	0.00	29.773 
19:15	42.6	42.6	42.6	66	32.0	2	5	315	0.00	29.772 
19:20	42.3	42.3	42.3	67	32.1	1	4	315	0.00	29.775 
19:25	42.2	42.2	42.2	67	32.0	2	4	248	0.00	29.776 
19:30	42.2	42.2	42.2	66	31.7	2	4	315	0.00	29.778 
19:35	42.1	42.1	42.1	67	31.9	1	5	292	0.00	29.783 
19:40	41.6	41.6	41.6	68	31.8	1	4	270	0.00	29.783 
19:45	41.5	41.5	41.5	68	31.7	1	3	270	0.00	29.783 
19:50	41.3	41.3	41.3	69	31.9	1	4	315	0.00	29.786 
19:55	41.2	41.2	41.2	69	31.8	1	4	270	0.00	29.787 
20:00	41.1	41.1	41.1	69	31.7	2	5	248	0.00	29.788 
20:05	40.8	40.8	40.8	70	31.8	1	4	292	0.00	29.785 
20:10	40.6	40.6	40.6	70	31.6	2	4	248	0.00	29.790 
20:15	41.1	38.6	41.1	70	32.1	4	10	315	0.00	29.790 
20:20	40.9	40.9	40.9	69	31.5	3	7	315	0.00	29.786 
20:25	40.6	40.6	40.6	69	31.2	2	5	270	0.00	29.786 
20:30	40.3	40.3	40.3	71	31.7	1	3	270	0.00	29.788 
20:35	40.2	40.2	40.2	70	31.2	2	5	315	0.00	29.789 
20:40	40.2	40.2	40.2	70	31.2	1	4	248	0.00	29.788 
20:45	40.1	40.1	40.1	70	31.1	2	5	270	0.00	29.787 
20:50	40.1	40.1	40.1	69	30.8	1	4	270	0.00	29.787 
20:55	40.2	40.2	40.2	69	30.9	2	4	270	0.00	29.788 
21:00	40.1	40.1	40.1	68	30.4	1	3	248	0.00	29.788 
21:05	40.1	40.1	40.1	67	30.0	2	4	270	0.00	29.784 
21:10	40.3	40.3	40.3	65	29.5	2	5	270	0.00	29.784 
21:15	40.5	40.5	40.5	64	29.3	2	8	270	0.00	29.784 
21:20	40.6	40.6	40.6	63	29.0	2	5	270	0.00	29.784 
21:25	40.6	40.6	40.6	63	29.0	2	4	270	0.00	29.787 
21:30	40.6	40.6	40.6	62	28.6	1	3	270	0.00	29.787 
21:35	40.3	40.3	40.3	63	28.7	1	3	270	0.00	29.787 
21:40	40.2	40.2	40.2	63	28.6	1	2	248	0.00	29.789 
21:45	39.9	39.9	39.9	64	28.7	0	2	248	0.00	29.788 
21:50	39.9	39.9	39.9	63	28.3	1	4	270	0.00	29.787 
21:55	40.1	40.1	40.1	63	28.5	1	2	315	0.00	29.787 
22:00	39.9	39.9	39.9	63	28.3	1	4	248	0.00	29.790 
22:05	39.9	39.9	39.9	63	28.3	2	4	270	0.00	29.792 
22:10	39.6	39.6	39.6	64	28.4	1	2	292	0.00	29.794 
22:15	39.6	39.6	39.6	63	28.1	2	4	270	0.00	29.794 
22:20	39.6	39.6	39.6	63	28.1	2	4	248	0.00	29.794 
22:25	39.5	39.5	39.5	63	28.0	1	6	270	0.00	29.796 
22:30	39.5	39.5	39.5	64	28.3	2	4	270	0.00	29.798 
22:35	39.3	39.3	39.3	64	28.2	2	5	248	0.00	29.797 
22:40	39.3	39.3	39.3	65	28.5	2	5	270	0.00	29.799 
22:45	39.2	39.2	39.2	65	28.4	2	3	248	0.00	29.800 
22:50	39.2	39.2	39.2	65	28.4	2	7	248	0.00	29.801 
22:55	39.2	39.2	39.2	66	28.8	3	7	270	0.00	29.804 
23:00	39.3	39.3	39.3	66	28.9	3	8	270	0.00	29.803 
23:05	39.3	39.3	39.3	67	29.3	3	7	270	0.00	29.803 
23:10	39.2	39.2	39.2	67	29.2	3	6	270	0.00	29.804 
23:15	39.1	39.1	39.1	68	29.4	2	6	292	0.00	29.799 
23:20	38.9	38.9	38.9	69	29.6	3	6	270	0.00	29.801 
23:25	38.9	38.9	38.9	69	29.6	2	5	270	0.00	29.799 
23:30	38.8	38.8	38.8	69	29.5	1	4	248	0.00	29.800 
23:35	38.8	38.8	38.8	68	29.2	2	5	270	0.00	29.804 
23:40	38.6	38.6	38.6	69	29.3	1	3	270	0.00	29.807 
23:45	38.5	38.5	38.5	69	29.2	1	3	248	0.00	29.806 
23:50	38.3	38.3	38.3	69	29.0	1	3	248	0.00	29.809 
23:55	38.2	38.2	38.2	69	28.9	1	3	248	0.00	29.811 

CoCoRaHS
IN-AL-39
A2 Web Hosting
Creative Commons License
GoDaddy
Look for:

loaded 2017-10-17 00:12:31 • last modified 2010-11-18 10:43:29
Privacy PolicyDisclaimer
• wx.awcolley.com is powered by PmWiki v.2002016 •
• all content (unless otherwise noted) © 2017 A W Colley